createdAt,value
2023-04-24T00:00:57.576Z,60.91
2023-04-24T00:03:31.185Z,60.77
2023-04-24T00:06:00.144Z,60.64
2023-04-24T00:08:29.152Z,60.73
2023-04-24T00:10:57.979Z,60.82
2023-04-24T00:13:26.931Z,61.25
2023-04-24T00:15:55.585Z,61.96
2023-04-24T00:18:24.779Z,61.68
2023-04-24T00:20:54.906Z,62.04
2023-04-24T00:23:23.843Z,62.24
2023-04-24T00:25:52.436Z,62.47
2023-04-24T00:28:21.396Z,61.96
2023-04-24T00:30:50.187Z,62.50
2023-04-24T00:33:19.168Z,63.06
2023-04-24T00:35:47.833Z,63.66
2023-04-24T00:38:18.164Z,63.44
2023-04-24T00:40:48.548Z,63.34
2023-04-24T00:43:17.910Z,63.61
2023-04-24T00:45:46.670Z,63.10
2023-04-24T00:48:16.841Z,63.93
2023-04-24T00:50:45.720Z,64.08
2023-04-24T00:53:18.194Z,64.50
2023-04-24T00:55:47.645Z,64.23
2023-04-24T00:58:17.026Z,64.71
2023-04-24T01:00:47.248Z,64.61
2023-04-24T01:03:17.243Z,64.66
2023-04-24T01:05:46.418Z,63.97
2023-04-24T01:08:17.715Z,63.98
2023-04-24T01:10:48.705Z,64.71
2023-04-24T01:13:17.781Z,65.16
2023-04-24T01:15:47.729Z,65.07
2023-04-24T01:18:17.882Z,65.57
2023-04-24T01:20:49.125Z,65.76
2023-04-24T01:23:19.739Z,65.82
2023-04-24T01:25:48.694Z,65.38
2023-04-24T01:28:18.231Z,65.43
2023-04-24T01:30:47.492Z,65.40
2023-04-24T01:33:16.687Z,65.51
2023-04-24T01:35:45.650Z,65.48
2023-04-24T01:38:14.772Z,65.82
2023-04-24T01:40:45.233Z,65.99
2023-04-24T01:43:15.264Z,65.77
2023-04-24T01:45:43.978Z,65.71
2023-04-24T01:48:15.053Z,66.38
2023-04-24T01:50:44.139Z,66.41
2023-04-24T01:53:14.638Z,66.60
2023-04-24T01:55:45.916Z,67.04
2023-04-24T01:58:16.250Z,66.97
2023-04-24T02:00:45.006Z,67.01
2023-04-24T02:03:14.172Z,67.10
2023-04-24T02:05:45.936Z,66.67
2023-04-24T02:08:14.987Z,65.76
2023-04-24T02:10:45.267Z,64.99
2023-04-24T02:13:14.456Z,64.51
2023-04-24T02:15:43.153Z,64.91
2023-04-24T02:18:13.819Z,66.06
2023-04-24T02:20:42.523Z,66.61
2023-04-24T02:23:11.405Z,66.95
2023-04-24T02:25:40.955Z,67.07
2023-04-24T02:28:11.357Z,67.11
2023-04-24T02:30:40.284Z,66.73
2023-04-24T02:33:09.337Z,67.12
2023-04-24T02:35:38.318Z,67.20
2023-04-24T02:38:07.464Z,66.87
2023-04-24T02:40:36.172Z,67.28
2023-04-24T02:43:05.457Z,67.50
2023-04-24T02:45:35.814Z,67.15
2023-04-24T02:48:05.122Z,67.13
2023-04-24T02:50:34.651Z,67.84
2023-04-24T02:53:03.623Z,67.39
2023-04-24T02:55:32.411Z,67.29
2023-04-24T02:58:01.307Z,67.54
2023-04-24T03:00:29.991Z,68.42
2023-04-24T03:03:01.049Z,68.48
2023-04-24T03:05:30.030Z,68.46
2023-04-24T03:07:59.165Z,68.74
2023-04-24T03:10:27.904Z,68.76
2023-04-24T03:12:56.921Z,68.80
2023-04-24T03:15:25.569Z,69.14
2023-04-24T03:17:56.656Z,68.96
2023-04-24T03:20:27.367Z,68.95
2023-04-24T03:22:58.741Z,68.92
2023-04-24T03:25:28.094Z,68.73
2023-04-24T03:27:57.613Z,68.59
2023-04-24T03:30:41.337Z,68.44
2023-04-24T03:33:11.320Z,68.10
2023-04-24T03:35:48.440Z,67.87
2023-04-24T03:38:17.493Z,67.89
2023-04-24T03:41:02.966Z,67.17
2023-04-24T03:43:46.019Z,66.99
2023-04-24T03:46:15.219Z,66.78
2023-04-24T03:48:49.993Z,66.31
2023-04-24T03:51:23.266Z,65.97
2023-04-24T03:53:56.001Z,66.00
2023-04-24T03:56:26.899Z,65.90
2023-04-24T03:58:56.381Z,65.60
2023-04-24T04:01:25.578Z,65.25
2023-04-24T04:04:01.119Z,64.79
2023-04-24T04:06:33.094Z,64.53
2023-04-24T04:09:04.183Z,64.43
2023-04-24T04:11:33.130Z,64.10
2023-04-24T04:14:02.135Z,64.04
2023-04-24T04:16:31.276Z,64.05
2023-04-24T04:19:05.201Z,63.83
2023-04-24T04:21:35.293Z,63.52
2023-04-24T04:24:23.560Z,62.93
2023-04-24T04:26:53.320Z,62.66
2023-04-24T04:29:29.775Z,62.37
2023-04-24T04:31:59.241Z,62.57
2023-04-24T04:34:29.994Z,61.87
2023-04-24T04:37:02.095Z,61.27
2023-04-24T04:39:57.235Z,61.08
2023-04-24T04:42:29.465Z,59.94
2023-04-24T04:44:59.280Z,59.36
2023-04-24T04:47:38.118Z,59.39
2023-04-24T04:50:08.596Z,59.20
2023-04-24T04:52:38.755Z,58.80
2023-04-24T04:55:19.344Z,58.91
2023-04-24T04:58:23.635Z,58.86
2023-04-24T05:00:58.403Z,58.00
2023-04-24T05:03:31.714Z,58.43
2023-04-24T05:06:06.978Z,57.98
2023-04-24T05:08:40.074Z,57.53
2023-04-24T05:11:12.534Z,57.58
2023-04-24T05:13:42.338Z,57.10
2023-04-24T05:16:16.613Z,56.14
2023-04-24T05:18:45.766Z,56.76
2023-04-24T05:21:17.843Z,56.50
2023-04-24T05:23:52.526Z,55.63
2023-04-24T05:26:41.553Z,55.30
2023-04-24T05:29:11.459Z,54.75
2023-04-24T05:31:40.475Z,54.71
2023-04-24T05:34:09.181Z,54.24
2023-04-24T05:36:42.208Z,54.40
2023-04-24T05:39:12.737Z,54.08
2023-04-24T05:41:41.720Z,54.07
2023-04-24T05:44:10.423Z,53.91
2023-04-24T05:46:39.580Z,53.59
2023-04-24T05:49:08.227Z,53.27
2023-04-24T05:51:37.881Z,52.74
2023-04-24T05:54:06.791Z,51.84
2023-04-24T05:56:37.306Z,51.38
2023-04-24T05:59:08.468Z,50.45
2023-04-24T06:01:38.142Z,50.29
2023-04-24T06:04:17.770Z,49.96
2023-04-24T06:06:47.006Z,49.44
2023-04-24T06:09:15.986Z,49.04
2023-04-24T06:11:46.764Z,48.72
2023-04-24T06:14:16.815Z,47.88
2023-04-24T06:17:15.718Z,48.50
2023-04-24T06:19:44.887Z,47.72
2023-04-24T06:22:14.104Z,46.99
2023-04-24T06:24:43.733Z,47.01
2023-04-24T06:27:15.291Z,45.55
2023-04-24T06:29:45.021Z,45.22
2023-04-24T06:32:14.345Z,45.40
2023-04-24T06:34:43.411Z,45.99
2023-04-24T06:37:12.662Z,45.50
2023-04-24T06:39:41.459Z,45.40
2023-04-24T06:42:10.719Z,44.53
2023-04-24T06:44:42.651Z,45.12
2023-04-24T06:47:14.766Z,45.02
2023-04-24T06:49:44.040Z,44.97
2023-04-24T06:52:13.348Z,45.13
2023-04-24T06:54:43.981Z,44.49
2023-04-24T06:57:13.217Z,44.26
2023-04-24T06:59:43.476Z,44.05
2023-04-24T07:02:12.812Z,43.55
2023-04-24T07:04:42.876Z,42.71
2023-04-24T07:07:15.172Z,42.55
2023-04-24T07:09:45.659Z,42.75
2023-04-24T07:12:14.872Z,43.45
2023-04-24T07:14:44.979Z,43.96
2023-04-24T07:17:14.339Z,44.04
2023-04-24T07:19:43.891Z,44.02
2023-04-24T07:22:17.859Z,44.51
2023-04-24T07:24:47.073Z,44.87
2023-04-24T07:27:16.416Z,45.47
2023-04-24T07:29:47.019Z,44.48
2023-04-24T07:32:16.258Z,43.68
2023-04-24T07:34:45.034Z,44.41
2023-04-24T07:37:14.206Z,43.88
2023-04-24T07:39:43.796Z,42.57
2023-04-24T07:42:12.950Z,42.43
2023-04-24T07:44:41.625Z,42.62
2023-04-24T07:47:12.110Z,42.32
2023-04-24T07:49:41.161Z,41.55
2023-04-24T07:52:10.361Z,42.29
2023-04-24T07:54:39.322Z,40.61
2023-04-24T07:57:09.296Z,40.44
2023-04-24T07:59:38.115Z,41.14
2023-04-24T08:02:12.077Z,40.91
2023-04-24T08:04:40.926Z,40.88
2023-04-24T08:07:10.204Z,41.26
2023-04-24T08:09:38.974Z,40.95
2023-04-24T08:12:08.331Z,41.14
2023-04-24T08:14:37.081Z,41.49
2023-04-24T08:17:06.099Z,40.84
2023-04-24T08:19:36.182Z,40.85
2023-04-24T08:22:05.346Z,41.23
2023-04-24T08:24:34.073Z,41.78
2023-04-24T08:27:03.210Z,41.73
2023-04-24T08:29:32.108Z,41.70
2023-04-24T08:32:01.225Z,40.92
2023-04-24T08:34:29.966Z,41.03
2023-04-24T08:37:00.646Z,41.33
2023-04-24T08:39:29.482Z,41.01
2023-04-24T08:41:58.799Z,41.09
2023-04-24T08:44:27.688Z,41.63
2023-04-24T08:46:56.834Z,41.88
2023-04-24T08:49:29.104Z,41.06
2023-04-24T08:52:00.793Z,41.59
2023-04-24T08:54:30.692Z,42.30
2023-04-24T08:57:04.565Z,42.54
2023-04-24T08:59:34.416Z,42.91
2023-04-24T09:02:05.993Z,42.66
2023-04-24T09:04:36.866Z,42.97
2023-04-24T09:07:12.270Z,42.06
2023-04-24T09:09:43.013Z,40.17
2023-04-24T09:12:12.695Z,40.06
2023-04-24T09:14:45.909Z,38.50
2023-04-24T09:17:15.414Z,38.62
2023-04-24T09:19:44.281Z,39.44
2023-04-24T09:22:14.912Z,39.28
2023-04-24T09:24:43.750Z,37.90
2023-04-24T09:27:15.776Z,36.36
2023-04-24T09:29:56.927Z,34.64
2023-04-24T09:32:29.860Z,34.55
2023-04-24T09:35:11.084Z,34.91
2023-04-24T09:37:44.748Z,33.55
2023-04-24T09:40:18.977Z,32.18
2023-04-24T09:42:53.737Z,31.95
2023-04-24T09:45:23.120Z,30.56
2023-04-24T09:47:56.140Z,31.45
2023-04-24T09:50:25.246Z,32.13
2023-04-24T09:53:06.016Z,32.76
2023-04-24T09:55:41.001Z,32.38
2023-04-24T09:58:16.145Z,32.40
2023-04-24T10:00:45.059Z,30.75
2023-04-24T10:03:15.790Z,30.80
2023-04-24T10:05:44.779Z,30.78
2023-04-24T10:08:22.617Z,31.85
2023-04-24T10:10:51.268Z,31.07
2023-04-24T10:13:20.586Z,30.72
2023-04-24T10:15:52.123Z,30.48
2023-04-24T10:18:27.344Z,29.26
2023-04-24T10:21:04.438Z,28.97
2023-04-24T10:23:38.631Z,27.05
2023-04-24T10:26:08.032Z,26.95
2023-04-24T10:28:39.466Z,27.50
2023-04-24T10:31:22.218Z,27.62
2023-04-24T10:33:56.508Z,27.34
2023-04-24T10:36:27.898Z,27.52
2023-04-24T10:39:05.774Z,28.47
2023-04-24T10:41:39.006Z,29.12
2023-04-24T10:44:08.739Z,29.31
2023-04-24T10:46:38.229Z,28.89
2023-04-24T10:49:10.764Z,29.20
2023-04-24T10:51:52.123Z,28.87
2023-04-24T10:54:30.972Z,30.41
2023-04-24T10:57:32.113Z,30.27
2023-04-24T11:00:22.134Z,28.14
2023-04-24T11:02:53.702Z,27.61
2023-04-24T11:05:24.330Z,27.12
2023-04-24T11:08:23.463Z,26.54
2023-04-24T11:11:01.528Z,26.08
2023-04-24T11:14:07.650Z,26.38
2023-04-24T11:16:45.917Z,27.25
2023-04-24T11:19:25.899Z,27.64
2023-04-24T11:22:04.139Z,26.55
2023-04-24T11:24:41.927Z,27.88
2023-04-24T11:27:22.839Z,28.12
2023-04-24T11:30:02.843Z,27.33
2023-04-24T11:32:40.503Z,26.68
2023-04-24T11:35:15.965Z,26.13
2023-04-24T11:38:08.111Z,26.54
2023-04-24T11:40:37.428Z,26.72
2023-04-24T11:43:10.625Z,26.89
2023-04-24T11:45:39.366Z,27.82
2023-04-24T11:48:08.375Z,28.21
2023-04-24T11:50:37.452Z,28.29
2023-04-24T11:53:06.883Z,27.72
2023-04-24T11:55:36.348Z,29.51
2023-04-24T11:58:07.826Z,28.75
2023-04-24T12:00:36.897Z,29.58
2023-04-24T12:03:09.126Z,30.84
2023-04-24T12:05:38.473Z,31.70
2023-04-24T12:08:08.178Z,31.90
2023-04-24T12:10:37.617Z,32.19
2023-04-24T12:13:11.383Z,31.91
2023-04-24T12:15:42.756Z,31.33
2023-04-24T12:18:14.851Z,31.97
2023-04-24T12:20:43.968Z,32.77
2023-04-24T12:23:13.208Z,33.18
2023-04-24T12:25:42.808Z,33.15
2023-04-24T12:28:15.237Z,33.79
2023-04-24T12:30:47.142Z,34.48
2023-04-24T12:33:20.590Z,34.15
2023-04-24T12:35:50.983Z,34.63
2023-04-24T12:38:25.832Z,35.35
2023-04-24T12:41:06.250Z,36.07
2023-04-24T12:43:37.731Z,35.89
2023-04-24T12:46:07.151Z,36.59
2023-04-24T12:48:36.301Z,36.86
2023-04-24T12:51:05.535Z,37.96
2023-04-24T12:53:34.562Z,37.87
2023-04-24T12:56:03.241Z,38.17
2023-04-24T12:58:32.155Z,38.48
2023-04-24T13:01:02.858Z,38.02
2023-04-24T13:03:31.935Z,38.42
2023-04-24T13:06:00.679Z,38.30
2023-04-24T13:08:29.597Z,37.60
2023-04-24T13:10:58.352Z,37.73
2023-04-24T13:13:27.591Z,36.91
2023-04-24T13:15:56.394Z,36.12
2023-04-24T13:18:27.156Z,36.30
2023-04-24T13:20:55.961Z,36.85
2023-04-24T13:23:24.938Z,36.41
2023-04-24T13:25:56.392Z,35.72
2023-04-24T13:28:25.721Z,36.43
2023-04-24T13:30:54.531Z,35.51
2023-04-24T13:33:23.493Z,35.16
2023-04-24T13:35:53.524Z,34.24
2023-04-24T13:38:23.625Z,34.60
2023-04-24T13:40:52.424Z,33.36
2023-04-24T13:43:21.375Z,31.51
2023-04-24T13:45:50.357Z,31.47
2023-04-24T13:48:19.399Z,31.33
2023-04-24T13:50:49.370Z,31.26
2023-04-24T13:53:19.866Z,29.72
2023-04-24T13:55:48.676Z,29.89
2023-04-24T13:58:17.667Z,29.63
2023-04-24T14:00:46.617Z,29.73
2023-04-24T14:03:15.728Z,30.24
2023-04-24T14:05:44.512Z,29.90
2023-04-24T14:08:13.496Z,29.71
2023-04-24T14:10:44.740Z,31.33
2023-04-24T14:13:14.074Z,32.14
2023-04-24T14:15:42.868Z,32.78
2023-04-24T14:18:11.940Z,33.17
2023-04-24T14:20:41.119Z,32.62
2023-04-24T14:23:10.058Z,32.85
2023-04-24T14:25:38.923Z,33.09
2023-04-24T14:28:09.707Z,32.94
2023-04-24T14:30:41.638Z,32.88
2023-04-24T14:33:10.594Z,32.44
2023-04-24T14:35:39.380Z,32.49
2023-04-24T14:38:08.328Z,31.77
2023-04-24T14:41:02.699Z,30.54
2023-04-24T14:43:27.590Z,30.55
2023-04-24T14:45:56.260Z,31.20
2023-04-24T14:48:25.190Z,30.86
2023-04-24T14:50:53.903Z,30.53
2023-04-24T14:53:23.044Z,30.55
2023-04-24T14:55:51.848Z,31.08
2023-04-24T14:58:21.066Z,30.74
2023-04-24T15:00:53.004Z,30.21
2023-04-24T15:03:22.849Z,29.57
2023-04-24T15:05:52.757Z,31.57
2023-04-24T15:08:21.805Z,30.09
2023-04-24T15:10:50.906Z,30.32
2023-04-24T15:13:19.933Z,29.88
2023-04-24T15:15:50.619Z,30.14
2023-04-24T15:18:19.699Z,30.67
2023-04-24T15:20:48.383Z,30.71
2023-04-24T15:23:17.294Z,30.51
2023-04-24T15:25:46.022Z,30.67
2023-04-24T15:28:14.955Z,30.35
2023-04-24T15:30:43.802Z,30.28
2023-04-24T15:33:14.241Z,30.66
2023-04-24T15:35:42.954Z,31.04
2023-04-24T15:38:11.995Z,31.26
2023-04-24T15:40:40.665Z,31.25
2023-04-24T15:43:09.554Z,31.25
2023-04-24T15:45:38.455Z,32.04
2023-04-24T15:48:07.597Z,32.94
2023-04-24T15:50:37.701Z,32.17
2023-04-24T15:53:08.107Z,32.29
2023-04-24T15:55:37.369Z,32.45
2023-04-24T15:58:06.812Z,32.79
2023-04-24T16:00:35.585Z,32.88
2023-04-24T16:03:06.940Z,33.52
2023-04-24T16:05:38.613Z,33.16
2023-04-24T16:08:07.956Z,33.52
2023-04-24T16:10:38.341Z,33.66
2023-04-24T16:13:07.352Z,34.11
2023-04-24T16:15:36.465Z,33.72
2023-04-24T16:18:06.093Z,33.31
2023-04-24T16:20:35.073Z,34.01
2023-04-24T16:23:05.827Z,33.73
2023-04-24T16:25:34.677Z,34.08
2023-04-24T16:28:03.872Z,34.75
2023-04-24T16:30:32.794Z,34.98
2023-04-24T16:33:05.690Z,34.96
2023-04-24T16:35:34.515Z,35.18
2023-04-24T16:38:05.319Z,35.13
2023-04-24T16:40:34.177Z,35.58
2023-04-24T16:43:03.267Z,35.56
2023-04-24T16:45:32.172Z,35.86
2023-04-24T16:48:03.638Z,35.79
2023-04-24T16:50:32.843Z,36.14
2023-04-24T16:53:01.989Z,36.21
2023-04-24T16:55:32.166Z,36.30
2023-04-24T16:58:01.267Z,36.71
2023-04-24T17:00:30.046Z,36.22
2023-04-24T17:02:59.034Z,36.33
2023-04-24T17:05:28.310Z,37.08
2023-04-24T17:07:57.520Z,36.86
2023-04-24T17:10:26.356Z,37.21
2023-04-24T17:12:57.362Z,37.29
2023-04-24T17:15:26.431Z,37.54
2023-04-24T17:17:56.704Z,37.70
2023-04-24T17:20:26.996Z,37.16
2023-04-24T17:22:58.394Z,38.05
2023-04-24T17:25:27.305Z,38.58
2023-04-24T17:27:57.723Z,39.02
2023-04-24T17:30:26.470Z,39.28
2023-04-24T17:32:55.575Z,40.54
2023-04-24T17:35:24.274Z,41.04
2023-04-24T17:37:53.560Z,41.29
2023-04-24T17:40:22.391Z,41.36
2023-04-24T17:42:51.475Z,41.72
2023-04-24T17:45:21.744Z,41.41
2023-04-24T17:47:51.810Z,42.49
2023-04-24T17:50:20.792Z,41.63
2023-04-24T17:52:49.763Z,42.12
2023-04-24T17:55:18.555Z,42.16
2023-04-24T17:57:47.574Z,42.21
2023-04-24T18:00:17.660Z,42.26
2023-04-24T18:02:49.775Z,42.31
2023-04-24T18:05:19.026Z,42.13
2023-04-24T18:07:48.005Z,42.76
2023-04-24T18:10:16.933Z,42.83
2023-04-24T18:12:46.580Z,42.46
2023-04-24T18:15:15.805Z,42.60
2023-04-24T18:17:45.128Z,42.78
2023-04-24T18:20:17.852Z,42.26
2023-04-24T18:22:47.597Z,42.68
2023-04-24T18:25:17.775Z,43.14
2023-04-24T18:27:46.683Z,42.92
2023-04-24T18:30:15.457Z,42.84
2023-04-24T18:32:44.518Z,42.89
2023-04-24T18:35:14.699Z,43.03
2023-04-24T18:37:45.401Z,43.93
2023-04-24T18:40:15.404Z,44.01
2023-04-24T18:42:45.182Z,44.06
2023-04-24T18:45:15.309Z,44.27
2023-04-24T18:47:44.925Z,44.42
2023-04-24T18:50:15.650Z,44.61
2023-04-24T18:52:44.710Z,44.32
2023-04-24T18:55:13.399Z,43.88
2023-04-24T18:57:42.370Z,44.14
2023-04-24T19:00:12.518Z,43.84
2023-04-24T19:02:41.287Z,44.03
2023-04-24T19:05:12.112Z,43.39
2023-04-24T19:07:42.393Z,42.93
2023-04-24T19:10:11.997Z,43.23
2023-04-24T19:12:40.912Z,42.25
2023-04-24T19:15:11.965Z,42.34
2023-04-24T19:17:40.676Z,42.40
2023-04-24T19:20:10.467Z,41.49
2023-04-24T19:22:39.202Z,41.08
2023-04-24T19:25:10.531Z,41.13
2023-04-24T19:27:39.371Z,40.57
2023-04-24T19:30:10.188Z,40.56
2023-04-24T19:32:38.897Z,40.39
2023-04-24T19:35:08.631Z,40.66
2023-04-24T19:37:37.439Z,40.50
2023-04-24T19:40:09.957Z,40.52
2023-04-24T19:42:43.864Z,42.54
2023-04-24T19:45:14.152Z,43.50
2023-04-24T19:47:43.312Z,43.21
2023-04-24T19:50:12.766Z,43.29
2023-04-24T19:52:41.602Z,43.50
2023-04-24T19:55:12.079Z,43.68
2023-04-24T19:57:40.830Z,44.74
2023-04-24T20:00:11.485Z,45.86
2023-04-24T20:02:40.405Z,46.17
2023-04-24T20:05:10.534Z,46.80
2023-04-24T20:07:39.428Z,48.02
2023-04-24T20:10:11.665Z,48.76
2023-04-24T20:12:40.314Z,49.33
2023-04-24T20:15:11.007Z,49.99
2023-04-24T20:17:39.634Z,50.54
2023-04-24T20:20:10.407Z,50.89
2023-04-24T20:22:39.727Z,51.50
2023-04-24T20:25:13.051Z,52.11
2023-04-24T20:27:42.540Z,52.68
2023-04-24T20:30:13.914Z,53.45
2023-04-24T20:32:43.373Z,53.82
2023-04-24T20:35:13.063Z,54.72
2023-04-24T20:37:42.459Z,55.26
2023-04-24T20:40:14.300Z,55.90
2023-04-24T20:42:46.335Z,56.11
2023-04-24T20:45:15.349Z,56.48
2023-04-24T20:47:44.013Z,56.60
2023-04-24T20:50:13.179Z,56.88
2023-04-24T20:52:41.952Z,57.04
2023-04-24T20:55:12.932Z,56.74
2023-04-24T20:57:41.942Z,57.33
2023-04-24T21:00:12.953Z,57.97
2023-04-24T21:02:42.380Z,58.42
2023-04-24T21:05:11.682Z,58.76
2023-04-24T21:07:40.396Z,59.04
2023-04-24T21:10:13.327Z,59.22
2023-04-24T21:12:42.030Z,58.88
2023-04-24T21:15:11.872Z,59.32
2023-04-24T21:17:40.654Z,59.50
2023-04-24T21:20:11.239Z,59.99
2023-04-24T21:22:40.305Z,60.32
2023-04-24T21:25:10.280Z,60.01
2023-04-24T21:27:40.505Z,60.41
2023-04-24T21:30:11.310Z,60.50
2023-04-24T21:32:40.681Z,60.89
2023-04-24T21:35:10.770Z,60.93
2023-04-24T21:37:40.074Z,60.91
2023-04-24T21:40:11.654Z,61.26
2023-04-24T21:42:41.724Z,61.63
2023-04-24T21:45:12.476Z,61.95
2023-04-24T21:47:41.157Z,62.06
2023-04-24T21:50:11.792Z,62.29
2023-04-24T21:52:40.657Z,62.50
2023-04-24T21:55:10.469Z,62.78
2023-04-24T21:57:39.310Z,63.13
2023-04-24T22:00:12.326Z,63.26
2023-04-24T22:02:43.080Z,63.94
2023-04-24T22:05:15.728Z,64.40
2023-04-24T22:07:47.229Z,65.02
2023-04-24T22:10:19.071Z,64.72
2023-04-24T22:12:48.389Z,64.94
2023-04-24T22:15:18.703Z,65.17
2023-04-24T22:17:48.931Z,65.31
2023-04-24T22:20:18.060Z,65.68
2023-04-24T22:22:47.122Z,66.34
2023-04-24T22:25:16.196Z,66.04
2023-04-24T22:27:44.962Z,66.45
2023-04-24T22:30:14.393Z,66.84
2023-04-24T22:32:44.676Z,67.05
2023-04-24T22:35:13.603Z,67.53
2023-04-24T22:37:42.261Z,67.98
2023-04-24T22:40:12.261Z,68.22
2023-04-24T22:42:41.218Z,68.49
2023-04-24T22:45:13.412Z,68.65
2023-04-24T22:47:42.532Z,68.62
2023-04-24T22:50:12.988Z,69.11
2023-04-24T22:52:43.885Z,69.20
2023-04-24T22:55:13.112Z,69.43
2023-04-24T22:57:42.232Z,69.40
2023-04-24T23:00:14.459Z,69.55
2023-04-24T23:02:44.346Z,69.87
2023-04-24T23:05:14.860Z,69.72
2023-04-24T23:07:44.161Z,69.77
2023-04-24T23:10:13.230Z,70.12
2023-04-24T23:12:41.906Z,70.20
2023-04-24T23:15:12.661Z,70.36
2023-04-24T23:17:41.511Z,70.58
2023-04-24T23:20:14.775Z,70.92
2023-04-24T23:22:43.774Z,70.94
2023-04-24T23:25:12.700Z,70.92
2023-04-24T23:27:41.371Z,71.21
2023-04-24T23:30:11.132Z,71.16
2023-04-24T23:32:39.969Z,71.53
2023-04-24T23:35:09.830Z,71.89
2023-04-24T23:37:39.991Z,72.01
2023-04-24T23:40:10.883Z,72.28
2023-04-24T23:42:39.757Z,72.52
2023-04-24T23:45:11.605Z,72.85
2023-04-24T23:47:41.129Z,73.14
2023-04-24T23:50:11.613Z,73.47
2023-04-24T23:52:41.781Z,73.26
2023-04-24T23:55:11.712Z,73.45
2023-04-24T23:57:40.442Z,73.25
